Time;durP1;ratioP1;P1;durP2;ratioP2;P2;SDS_P1;SDS_P2;PMS_P1;PMS_P2;Temp;Humidity;BMP_temperature;BMP_pressure;BME280_temperature;BME280_humidity;BME280_pressure;Samples;Min_cycle;Max_cycle;Signal;HPM_P1;HPM_P2
2022/11/23 00:01:19;;;;;;;7.33;5.03;;;8.20;99.90;;;;;;10313403;28;20283;-81
2022/11/23 00:06:23;;;;;;;7.83;4.13;;;8.20;99.90;;;;;;10329210;28;20230;-81
2022/11/23 00:11:27;;;;;;;7.23;4.20;;;8.20;99.90;;;;;;10301188;28;20225;-82
2022/11/23 00:16:30;;;;;;;4.20;3.50;;;8.10;99.90;;;;;;10318030;28;20298;-81
2022/11/23 00:21:34;;;;;;;6.13;3.27;;;8.10;99.90;;;;;;10319113;28;20195;-81
2022/11/23 00:26:36;;;;;;;5.33;3.80;;;8.10;99.90;;;;;;10315332;28;20215;-82
2022/11/23 00:31:39;;;;;;;4.53;3.73;;;8.00;99.90;;;;;;10320564;28;20248;-81
2022/11/23 00:36:43;;;;;;;3.43;3.13;;;8.00;99.90;;;;;;10311187;28;20212;-82
2022/11/23 00:41:46;;;;;;;5.10;3.53;;;8.00;99.90;;;;;;10317649;28;20246;-82
2022/11/23 00:46:49;;;;;;;3.27;3.00;;;8.00;99.90;;;;;;10322793;28;20217;-82
2022/11/23 00:51:52;;;;;;;3.60;3.30;;;8.00;99.90;;;;;;10322210;28;20212;-82
2022/11/23 00:56:54;;;;;;;4.23;2.80;;;8.10;99.90;;;;;;10324636;28;20199;-83
2022/11/23 01:01:57;;;;;;;3.97;3.00;;;8.10;99.90;;;;;;10334506;28;20665;-83
2022/11/23 01:07:01;;;;;;;5.47;3.57;;;8.20;99.90;;;;;;10469774;23;20241;-79
2022/11/23 01:12:03;;;;;;;6.60;3.07;;;8.30;99.90;;;;;;10400291;28;20279;-82
2022/11/23 01:17:05;;;;;;;5.13;3.30;;;8.30;99.90;;;;;;10401759;28;20241;-80
2022/11/23 01:22:11;;;;;;;4.60;2.67;;;8.40;99.90;;;;;;10401988;28;20190;-82
2022/11/23 01:27:13;;;;;;;4.87;2.93;;;8.50;99.90;;;;;;10379115;28;20214;-82
2022/11/23 01:32:15;;;;;;;4.07;3.20;;;8.40;99.90;;;;;;10345816;28;20222;-82
2022/11/23 01:37:19;;;;;;;3.00;2.67;;;8.50;99.90;;;;;;10377367;28;20222;-77
2022/11/23 01:42:21;;;;;;;4.83;3.00;;;8.50;99.90;;;;;;10379006;28;20626;-80
2022/11/23 01:47:23;;;;;;;4.80;3.23;;;8.50;99.90;;;;;;10379654;28;20199;-80
2022/11/23 01:52:26;;;;;;;5.57;3.10;;;8.50;99.90;;;;;;10379738;28;20939;-82
2022/11/23 01:57:34;;;;;;;4.90;2.40;;;8.50;99.90;;;;;;10360923;28;20238;-78
2022/11/23 02:02:38;;;;;;;5.43;2.70;;;8.50;99.90;;;;;;10356443;28;20257;-79
2022/11/23 02:07:43;;;;;;;5.90;3.60;;;8.50;99.90;;;;;;10376435;28;20198;-77
2022/11/23 02:12:45;;;;;;;3.40;2.97;;;8.50;99.90;;;;;;10340938;28;20702;-81
2022/11/23 02:17:47;;;;;;;4.23;2.73;;;8.50;99.90;;;;;;10356125;28;20218;-78
2022/11/23 02:23:04;;;;;;;5.07;3.30;;;8.50;99.90;;;;;;10361818;28;20289;-81
2022/11/23 02:28:11;;;;;;;2.67;2.40;;;8.40;99.90;;;;;;10345808;28;20293;-80
2022/11/23 02:33:14;;;;;;;3.60;3.03;;;8.30;99.90;;;;;;10362719;28;20222;-82
2022/11/23 02:38:17;;;;;;;3.53;3.10;;;8.30;99.90;;;;;;10363119;28;20630;-81
2022/11/23 02:43:21;;;;;;;5.00;3.33;;;8.30;99.90;;;;;;10363109;28;20206;-80
2022/11/23 02:48:23;;;;;;;7.90;3.50;;;8.30;99.90;;;;;;10368046;28;20242;-80
2022/11/23 02:53:25;;;;;;;4.23;3.10;;;8.30;99.90;;;;;;10361635;28;20248;-80
2022/11/23 02:58:31;;;;;;;6.63;3.67;;;8.30;99.90;;;;;;10392440;28;20183;-79
2022/11/23 03:03:33;;;;;;;4.53;3.20;;;8.30;99.90;;;;;;10358211;28;20241;-80
2022/11/23 03:08:35;;;;;;;4.90;3.20;;;8.20;99.90;;;;;;10362717;28;20718;-79
2022/11/23 03:13:38;;;;;;;9.17;5.37;;;8.20;99.90;;;;;;10378306;28;20248;-80
2022/11/23 03:18:41;;;;;;;6.93;3.70;;;8.10;99.90;;;;;;10360647;28;20194;-80
2022/11/23 03:23:44;;;;;;;6.33;4.17;;;8.10;99.90;;;;;;10359695;28;20580;-79
2022/11/23 03:28:50;;;;;;;4.60;3.20;;;8.10;99.90;;;;;;10358722;28;20213;-78
2022/11/23 03:33:52;;;;;;;3.60;3.30;;;8.10;99.90;;;;;;10391371;28;20280;-79
2022/11/23 03:38:54;;;;;;;5.73;3.43;;;8.10;99.90;;;;;;10354747;28;20233;-79
2022/11/23 03:44:11;;;;;;;4.97;3.30;;;8.10;99.90;;;;;;10355507;28;20439;-80
2022/11/23 03:49:13;;;;;;;5.87;3.30;;;8.10;99.90;;;;;;10388170;28;20189;-78
2022/11/23 03:54:15;;;;;;;7.27;4.10;;;8.10;99.90;;;;;;10392260;28;20214;-79
2022/11/23 03:59:19;;;;;;;7.43;4.00;;;8.10;99.90;;;;;;10360633;28;20261;-79
2022/11/23 04:04:21;;;;;;;7.50;5.40;;;8.10;99.90;;;;;;10385168;28;20290;-80
2022/11/23 04:09:33;;;;;;;5.43;3.70;;;8.20;99.90;;;;;;10366085;28;20250;-79
2022/11/23 04:14:42;;;;;;;4.50;3.67;;;8.20;99.90;;;;;;10380080;28;20226;-79
2022/11/23 04:19:44;;;;;;;4.10;3.40;;;8.20;99.90;;;;;;10364725;28;20191;-79
2022/11/23 04:24:48;;;;;;;6.50;4.53;;;8.30;99.90;;;;;;10367885;28;20225;-78
2022/11/23 04:29:51;;;;;;;4.50;3.53;;;8.30;99.90;;;;;;10346664;28;20310;-78
2022/11/23 04:34:54;;;;;;;5.07;3.70;;;8.40;99.90;;;;;;10362123;28;20224;-78
2022/11/23 04:39:56;;;;;;;5.30;3.93;;;8.40;99.90;;;;;;10361109;28;20248;-79
2022/11/23 04:45:11;;;;;;;6.70;5.23;;;8.40;99.90;;;;;;10360947;28;20301;-78
2022/11/23 04:50:13;;;;;;;5.20;3.43;;;8.30;99.90;;;;;;10361002;28;20229;-79
2022/11/23 04:55:18;;;;;;;3.87;2.83;;;8.30;99.90;;;;;;10363439;28;20246;-81
2022/11/23 05:00:29;;;;;;;6.53;4.13;;;8.20;99.90;;;;;;10370110;28;20190;-80
2022/11/23 05:05:33;;;;;;;4.50;3.50;;;8.20;99.90;;;;;;10363970;28;20229;-82
2022/11/23 05:10:36;;;;;;;4.30;3.90;;;8.10;99.90;;;;;;10372062;28;20309;-82
2022/11/23 05:15:41;;;;;;;6.30;3.97;;;8.10;99.90;;;;;;10346103;28;20311;-78
2022/11/23 05:20:43;;;;;;;5.43;3.90;;;8.00;99.90;;;;;;10371807;28;20201;-79
2022/11/23 05:25:46;;;;;;;4.53;3.87;;;8.00;99.90;;;;;;10362942;28;20329;-78
2022/11/23 05:30:53;;;;;;;3.90;3.53;;;8.10;99.90;;;;;;10362450;28;20210;-79
2022/11/23 05:35:55;;;;;;;3.77;3.47;;;8.10;99.90;;;;;;10359836;28;20227;-78
2022/11/23 05:41:08;;;;;;;4.30;3.83;;;8.10;99.90;;;;;;10372489;28;20195;-79
2022/11/23 05:46:15;;;;;;;4.10;3.50;;;8.20;99.90;;;;;;10358255;28;20214;-79
2022/11/23 05:51:17;;;;;;;6.53;5.83;;;8.30;99.90;;;;;;10375333;28;20221;-78
2022/11/23 05:56:22;;;;;;;7.30;3.80;;;8.30;99.90;;;;;;10360674;28;20206;-79
2022/11/23 06:01:44;;;;;;;6.07;4.30;;;8.40;99.90;;;;;;10374599;28;20553;-79
2022/11/23 06:06:53;;;;;;;6.90;4.90;;;8.50;99.90;;;;;;10355345;28;20595;-79
2022/11/23 06:11:55;;;;;;;9.53;8.23;;;8.50;99.90;;;;;;10356285;28;20234;-79
2022/11/23 06:16:59;;;;;;;8.07;7.27;;;8.60;99.90;;;;;;10344536;28;20940;-77
2022/11/23 06:22:09;;;;;;;6.03;5.07;;;8.60;99.90;;;;;;10357560;28;20666;-77
2022/11/23 06:27:19;;;;;;;15.33;9.10;;;8.60;99.90;;;;;;10357458;28;20218;-78
2022/11/23 06:32:25;;;;;;;12.20;8.53;;;8.60;99.90;;;;;;10358219;28;20233;-79
2022/11/23 06:37:27;;;;;;;10.70;7.40;;;8.60;99.90;;;;;;10357531;28;20260;-81
2022/11/23 06:42:30;;;;;;;10.57;6.70;;;8.60;99.90;;;;;;10363161;28;20190;-78
2022/11/23 06:47:35;;;;;;;5.97;4.40;;;8.60;99.90;;;;;;10365590;28;20288;-82
2022/11/23 06:52:37;;;;;;;8.77;5.10;;;8.50;99.90;;;;;;10392956;28;20675;-81
2022/11/23 06:57:39;;;;;;;7.97;6.37;;;8.50;99.90;;;;;;10366213;28;20781;-81
2022/11/23 07:07:52;;;;;;;8.40;4.60;;;8.30;99.90;;;;;;10282230;28;20216;-82
2022/11/23 07:13:04;;;;;;;4.97;3.97;;;8.30;99.90;;;;;;10297774;28;20223;-83
2022/11/23 07:18:07;;;;;;;4.67;3.63;;;8.30;99.90;;;;;;10265612;28;20618;-82
2022/11/23 07:23:12;;;;;;;5.17;4.57;;;8.20;99.90;;;;;;10234573;28;20277;-81
2022/11/23 07:28:16;;;;;;;6.30;4.20;;;8.20;99.90;;;;;;10219945;29;20192;-82
2022/11/23 07:33:18;;;;;;;4.03;3.60;;;8.20;99.90;;;;;;10240639;28;20832;-82
2022/11/23 07:38:23;;;;;;;6.83;4.53;;;8.20;99.90;;;;;;10249561;29;20204;-82
2022/11/23 07:43:26;;;;;;;5.10;4.50;;;8.20;99.90;;;;;;10250143;28;20283;-82
2022/11/23 07:48:31;;;;;;;6.33;5.73;;;8.10;99.90;;;;;;10248325;29;20197;-83
2022/11/23 07:53:35;;;;;;;13.40;8.43;;;8.20;99.90;;;;;;10267537;28;20222;-80
2022/11/23 07:58:37;;;;;;;16.17;12.50;;;8.20;99.90;;;;;;10268677;28;20255;-80
2022/11/23 08:03:39;;;;;;;12.20;11.10;;;8.10;99.90;;;;;;10267188;28;20228;-81
2022/11/23 08:08:45;;;;;;;10.93;7.40;;;8.10;99.90;;;;;;10248510;28;20196;-81
2022/11/23 08:13:48;;;;;;;8.60;5.60;;;8.10;99.90;;;;;;10246666;28;20229;-81
2022/11/23 08:18:50;;;;;;;4.23;2.83;;;8.10;99.90;;;;;;10246992;29;20192;-83
2022/11/23 08:23:54;;;;;;;7.50;4.77;;;8.10;99.90;;;;;;10246841;28;20216;-80
2022/11/23 08:28:56;;;;;;;7.03;3.73;;;8.10;99.90;;;;;;10264301;29;20192;-80
2022/11/23 08:33:58;;;;;;;11.77;9.23;;;8.20;99.90;;;;;;10232142;28;20768;-81
2022/11/23 08:39:02;;;;;;;6.73;4.67;;;8.20;99.90;;;;;;10263430;29;20200;-80
2022/11/23 08:44:04;;;;;;;6.40;5.37;;;8.20;99.90;;;;;;10243655;28;20217;-83
2022/11/23 08:49:07;;;;;;;6.93;5.23;;;8.30;99.90;;;;;;10257468;29;20204;-80
2022/11/23 08:54:13;;;;;;;7.80;4.90;;;8.30;99.90;;;;;;10239612;28;20365;-81
2022/11/23 08:59:17;;;;;;;7.50;5.90;;;8.40;99.90;;;;;;10255323;29;20189;-82
2022/11/23 09:04:19;;;;;;;7.77;6.67;;;8.50;99.90;;;;;;10257372;28;20220;-80
2022/11/23 09:09:22;;;;;;;8.50;4.50;;;8.50;99.90;;;;;;10257710;29;20207;-83
2022/11/23 09:14:26;;;;;;;6.03;4.90;;;8.60;99.90;;;;;;10244284;28;20212;-82
2022/11/23 09:19:28;;;;;;;6.90;6.20;;;8.60;99.90;;;;;;10239209;29;20197;-82
2022/11/23 09:24:32;;;;;;;7.10;5.80;;;8.70;99.90;;;;;;10241351;28;21004;-82
2022/11/23 09:29:34;;;;;;;6.77;6.17;;;8.70;99.90;;;;;;10222196;29;20547;-82
2022/11/23 09:34:36;;;;;;;6.83;5.10;;;8.80;99.90;;;;;;10240615;28;20279;-82
2022/11/23 09:39:39;;;;;;;10.90;5.17;;;8.80;99.90;;;;;;10227995;29;20203;-82
2022/11/23 09:44:58;;;;;;;5.27;4.80;;;8.80;99.90;;;;;;10237208;28;20581;-82
2022/11/23 09:50:10;;;;;;;8.77;4.47;;;8.80;99.90;;;;;;10254040;29;20196;-82
2022/11/23 09:55:19;;;;;;;5.57;4.00;;;8.90;99.90;;;;;;10243288;28;20256;-82
2022/11/23 10:00:23;;;;;;;7.33;4.27;;;8.90;99.90;;;;;;10239231;29;20220;-82
2022/11/23 10:05:31;;;;;;;4.97;3.40;;;8.90;99.90;;;;;;10223415;28;20270;-81
2022/11/23 10:10:41;;;;;;;4.97;4.50;;;9.00;99.90;;;;;;10243218;29;20204;-82
2022/11/23 10:15:56;;;;;;;4.37;4.00;;;9.00;99.90;;;;;;10236198;28;20220;-82
2022/11/23 10:21:11;;;;;;;8.67;7.70;;;9.00;99.90;;;;;;10222936;29;20208;-81
2022/11/23 10:26:16;;;;;;;6.23;4.63;;;9.10;99.90;;;;;;10223219;29;20251;-82
2022/11/23 10:31:20;;;;;;;61.87;42.40;;;9.10;99.90;;;;;;10220754;29;20304;-82
2022/11/23 10:36:22;;;;;;;24.53;14.83;;;9.10;99.90;;;;;;10252684;28;20259;-83
2022/11/23 10:41:26;;;;;;;8.57;6.17;;;9.10;99.90;;;;;;10235712;29;20291;-83
2022/11/23 10:46:31;;;;;;;4.73;4.30;;;9.20;99.90;;;;;;10232569;29;20315;-82
2022/11/23 10:51:33;;;;;;;5.63;4.50;;;9.20;99.90;;;;;;10250517;29;20220;-83
2022/11/23 10:56:46;;;;;;;8.13;5.00;;;9.20;99.90;;;;;;10228320;29;20268;-83
2022/11/23 11:02:00;;;;;;;5.27;4.77;;;9.20;99.90;;;;;;10249536;29;20199;-83
2022/11/23 11:07:21;;;;;;;5.30;4.80;;;9.20;99.90;;;;;;10247033;28;20315;-82
2022/11/23 11:12:25;;;;;;;5.37;4.63;;;9.30;99.90;;;;;;10252413;29;20216;-82
2022/11/23 11:17:29;;;;;;;8.10;4.73;;;9.30;99.90;;;;;;10252363;28;20228;-82
2022/11/23 11:22:36;;;;;;;10.57;9.53;;;9.30;99.90;;;;;;10236661;29;20215;-82
2022/11/23 11:27:51;;;;;;;5.30;4.50;;;9.30;99.90;;;;;;10251166;29;20649;-82
2022/11/23 11:33:01;;;;;;;4.50;4.10;;;9.40;99.90;;;;;;10251097;29;20742;-82
2022/11/23 11:38:11;;;;;;;5.27;4.23;;;9.40;99.90;;;;;;10251573;29;20244;-82
2022/11/23 11:43:20;;;;;;;3.57;3.27;;;9.50;99.90;;;;;;10252526;29;20719;-82
2022/11/23 11:48:25;;;;;;;3.90;3.60;;;9.50;99.90;;;;;;10249718;29;20561;-81
2022/11/23 11:53:33;;;;;;;4.00;3.70;;;9.50;99.90;;;;;;10253784;28;20224;-82
2022/11/23 11:58:37;;;;;;;4.23;3.93;;;9.60;99.90;;;;;;10252148;29;20207;-83
2022/11/23 12:03:43;;;;;;;4.70;4.30;;;9.60;99.90;;;;;;10251218;28;20615;-82
2022/11/23 12:08:52;;;;;;;16.33;12.40;;;9.60;99.90;;;;;;10235983;29;20201;-83
2022/11/23 12:14:01;;;;;;;7.30;6.60;;;9.60;99.90;;;;;;10252643;28;20239;-82
2022/11/23 12:19:13;;;;;;;6.20;4.47;;;9.60;99.90;;;;;;10253520;28;20201;-82
2022/11/23 12:24:23;;;;;;;4.90;4.50;;;9.70;99.90;;;;;;10261922;28;20228;-81
2022/11/23 12:29:40;;;;;;;13.10;11.23;;;9.70;99.90;;;;;;10261813;29;20213;-82
2022/11/23 12:35:16;;;;;;;11.10;9.70;;;9.70;99.90;;;;;;10261423;28;20262;-81
2022/11/23 12:40:48;;;;;;;4.20;4.00;;;9.80;99.90;;;;;;10259218;29;20549;-81
2022/11/23 12:46:10;;;;;;;3.60;3.40;;;9.80;99.90;;;;;;10261475;28;20628;-82
2022/11/23 12:51:22;;;;;;;4.00;3.80;;;9.80;99.90;;;;;;10240897;29;20211;-81
2022/11/23 12:56:43;;;;;;;3.50;3.20;;;9.80;99.90;;;;;;10229672;29;20217;-82
2022/11/23 13:01:51;;;;;;;3.20;3.00;;;9.80;99.90;;;;;;10253327;29;20283;-82
2022/11/23 13:07:21;;;;;;;3.73;3.53;;;9.80;99.90;;;;;;10255085;28;20233;-82
2022/11/23 13:12:36;;;;;;;4.03;3.73;;;9.80;99.90;;;;;;10253630;29;20316;-81
2022/11/23 13:17:47;;;;;;;5.60;4.10;;;9.80;99.90;;;;;;10260683;28;20258;-82
2022/11/23 13:22:50;;;;;;;4.07;3.67;;;9.80;99.90;;;;;;10270036;28;20216;-82
2022/11/23 13:28:01;;;;;;;3.47;3.13;;;9.80;99.90;;;;;;10254740;29;20237;-82
2022/11/23 13:33:26;;;;;;;3.10;2.90;;;9.80;99.90;;;;;;10253639;28;20315;-81
2022/11/23 13:38:44;;;;;;;4.43;2.47;;;9.80;99.90;;;;;;10255547;29;20220;-82
2022/11/23 13:43:47;;;;;;;6.50;5.10;;;9.80;99.90;;;;;;10241970;28;20272;-81
2022/11/23 13:48:52;;;;;;;2.03;1.93;;;9.80;99.90;;;;;;10259196;29;20205;-83
2022/11/23 13:53:59;;;;;;;3.47;3.20;;;9.80;99.90;;;;;;10236233;29;20232;-82
2022/11/23 13:59:27;;;;;;;3.00;2.80;;;9.80;99.90;;;;;;10250550;29;20204;-81
2022/11/23 14:04:31;;;;;;;5.33;4.93;;;9.80;99.90;;;;;;10234965;28;20233;-81
2022/11/23 14:09:38;;;;;;;4.73;4.33;;;9.80;99.90;;;;;;10252537;29;20219;-81
2022/11/23 14:14:58;;;;;;;4.30;4.00;;;9.80;99.90;;;;;;10224034;29;20312;-81
2022/11/23 14:20:28;;;;;;;3.60;2.53;;;9.80;99.90;;;;;;10244657;29;20248;-81
2022/11/23 14:25:42;;;;;;;5.80;3.13;;;9.80;99.90;;;;;;10263545;28;20311;-80
2022/11/23 14:30:57;;;;;;;9.53;8.73;;;9.80;99.90;;;;;;10252410;29;20570;-81
2022/11/23 14:36:09;;;;;;;4.43;4.13;;;9.80;99.90;;;;;;10253252;28;20228;-81
2022/11/23 14:41:16;;;;;;;3.37;3.17;;;9.80;99.90;;;;;;10235991;28;20265;-81
2022/11/23 14:46:20;;;;;;;4.00;3.57;;;9.80;99.90;;;;;;10234978;29;20213;-81
2022/11/23 14:51:26;;;;;;;4.10;3.70;;;9.80;99.90;;;;;;10255998;29;20200;-82
2022/11/23 14:56:33;;;;;;;4.97;3.83;;;9.80;99.90;;;;;;10256512;29;20228;-81
2022/11/23 15:01:36;;;;;;;3.90;3.37;;;9.70;99.90;;;;;;10254027;29;20232;-81
2022/11/23 15:06:43;;;;;;;4.30;4.00;;;9.70;99.90;;;;;;10234019;29;20248;-81
2022/11/23 15:11:47;;;;;;;6.37;4.87;;;9.70;99.90;;;;;;10222899;29;20295;-81
2022/11/23 15:16:49;;;;;;;4.57;4.13;;;9.60;99.90;;;;;;10250425;29;20217;-81
2022/11/23 15:21:52;;;;;;;4.20;3.80;;;9.60;99.90;;;;;;10238232;29;20641;-81
2022/11/23 15:27:03;;;;;;;5.20;2.33;;;9.60;99.90;;;;;;10250285;28;20600;-80
2022/11/23 15:32:22;;;;;;;4.37;4.00;;;9.50;99.90;;;;;;10249393;29;20207;-81
2022/11/23 15:37:27;;;;;;;5.93;3.63;;;9.50;99.90;;;;;;10249526;29;20287;-80
2022/11/23 15:42:30;;;;;;;4.10;3.70;;;9.40;99.90;;;;;;10220346;29;20200;-82
2022/11/23 15:47:32;;;;;;;5.07;4.10;;;9.40;99.90;;;;;;10238019;29;20302;-81
2022/11/23 15:52:37;;;;;;;6.87;4.63;;;9.40;99.90;;;;;;10253504;28;20212;-81
2022/11/23 15:57:40;;;;;;;4.60;3.80;;;9.30;99.90;;;;;;10260194;29;20254;-81
2022/11/23 16:02:43;;;;;;;4.43;3.67;;;9.30;99.90;;;;;;10258207;29;20314;-81
2022/11/23 16:07:56;;;;;;;9.30;5.50;;;9.30;99.90;;;;;;10251831;29;20228;-81
2022/11/23 16:13:00;;;;;;;7.33;4.97;;;9.30;99.90;;;;;;10261765;29;20232;-80
2022/11/23 16:18:03;;;;;;;5.33;4.17;;;9.30;99.90;;;;;;10261299;28;20267;-80
2022/11/23 16:23:16;;;;;;;3.80;3.50;;;9.30;99.90;;;;;;10256432;29;20207;-82
2022/11/23 16:28:26;;;;;;;6.37;3.60;;;9.40;99.90;;;;;;10256648;29;20197;-80
2022/11/23 16:33:29;;;;;;;3.57;3.37;;;9.50;99.90;;;;;;10262048;29;20228;-81
2022/11/23 16:38:32;;;;;;;3.47;3.27;;;9.60;99.90;;;;;;10261894;29;20208;-80
2022/11/23 16:43:34;;;;;;;4.60;4.30;;;9.70;99.90;;;;;;10231569;29;20240;-81
2022/11/23 16:48:39;;;;;;;4.50;4.10;;;9.70;99.90;;;;;;10260245;29;20251;-82
2022/11/23 16:53:45;;;;;;;5.80;4.37;;;9.80;99.90;;;;;;10268677;28;20232;-81
2022/11/23 16:58:47;;;;;;;4.77;4.40;;;9.80;99.90;;;;;;10267126;28;20704;-81
2022/11/23 17:03:50;;;;;;;7.47;6.23;;;9.80;99.90;;;;;;10259456;28;20736;-81
2022/11/23 17:08:54;;;;;;;5.00;4.60;;;9.90;99.90;;;;;;10255097;28;20613;-84
2022/11/23 17:13:56;;;;;;;6.93;6.27;;;9.80;99.90;;;;;;10248258;28;20315;-81
2022/11/23 17:18:58;;;;;;;8.50;7.70;;;9.70;99.90;;;;;;10257510;28;20215;-81
2022/11/23 17:24:02;;;;;;;9.03;7.40;;;9.60;99.90;;;;;;10257297;28;20271;-82
2022/11/23 17:29:06;;;;;;;5.77;5.27;;;9.50;99.90;;;;;;10256506;29;20296;-82
2022/11/23 17:34:09;;;;;;;7.70;7.10;;;9.40;99.90;;;;;;10253969;28;20256;-81
2022/11/23 17:39:17;;;;;;;8.60;7.80;;;9.30;99.90;;;;;;10254192;29;20209;-81
2022/11/23 17:44:20;;;;;;;7.27;6.40;;;9.20;99.90;;;;;;10254618;28;20224;-80
2022/11/23 17:49:26;;;;;;;33.80;23.70;;;9.20;99.90;;;;;;10255691;29;20227;-80
2022/11/23 17:54:30;;;;;;;6.73;6.23;;;9.00;99.90;;;;;;10252724;28;20228;-80
2022/11/23 17:59:32;;;;;;;17.33;15.00;;;9.00;99.90;;;;;;10255459;29;20224;-82
2022/11/23 18:04:35;;;;;;;57.40;37.40;;;9.00;99.90;;;;;;10258153;29;20225;-81
2022/11/23 18:09:38;;;;;;;16.17;12.23;;;8.90;99.90;;;;;;10257792;29;20276;-81
2022/11/23 18:14:40;;;;;;;24.60;21.13;;;8.90;99.90;;;;;;10237742;29;20252;-82
2022/11/23 18:19:42;;;;;;;15.30;14.10;;;8.80;99.90;;;;;;10259050;28;20609;-82
2022/11/23 18:24:46;;;;;;;14.70;13.50;;;8.80;99.90;;;;;;10253061;29;20295;-81
2022/11/23 18:29:48;;;;;;;11.50;10.60;;;8.70;99.90;;;;;;10255881;28;21498;-80
2022/11/23 18:34:51;;;;;;;12.80;12.00;;;8.70;99.90;;;;;;10253497;28;20264;-82
2022/11/23 18:39:54;;;;;;;11.10;10.50;;;8.70;99.90;;;;;;10257300;28;20204;-82
2022/11/23 18:44:56;;;;;;;15.03;13.70;;;8.80;99.90;;;;;;10259752;28;20303;-80
2022/11/23 18:49:58;;;;;;;7.57;6.97;;;8.70;99.90;;;;;;10235245;28;20725;-81
2022/11/23 18:55:02;;;;;;;13.13;12.40;;;8.70;99.90;;;;;;10210979;28;20267;-82
2022/11/23 19:00:04;;;;;;;14.33;13.33;;;8.70;99.90;;;;;;10232495;29;20296;-81
2022/11/23 19:05:07;;;;;;;13.70;12.90;;;8.60;99.90;;;;;;10250165;28;20224;-80
2022/11/23 19:10:11;;;;;;;13.97;13.20;;;8.60;99.90;;;;;;10251807;29;20193;-81
2022/11/23 19:15:13;;;;;;;13.43;12.40;;;8.60;99.90;;;;;;10234540;28;20315;-80
2022/11/23 19:20:17;;;;;;;11.27;10.47;;;8.60;99.90;;;;;;10235005;29;20212;-80
2022/11/23 19:25:20;;;;;;;13.90;13.03;;;8.60;99.90;;;;;;10234675;28;20223;-80
2022/11/23 19:30:23;;;;;;;14.00;13.20;;;8.70;99.90;;;;;;10233916;29;20204;-80
2022/11/23 19:35:25;;;;;;;12.77;11.90;;;8.70;99.90;;;;;;10248629;28;20725;-80
2022/11/23 19:40:29;;;;;;;11.70;10.90;;;8.70;99.90;;;;;;10234024;29;20251;-80
2022/11/23 19:45:31;;;;;;;14.70;13.60;;;8.70;99.90;;;;;;10234406;28;20227;-81
2022/11/23 19:50:33;;;;;;;13.70;12.80;;;8.70;99.90;;;;;;10258409;29;20231;-82
2022/11/23 19:55:37;;;;;;;14.47;13.40;;;8.80;99.90;;;;;;10255118;28;20315;-82
2022/11/23 20:00:44;;;;;;;13.60;12.50;;;8.80;99.90;;;;;;10240610;29;20192;-82
2022/11/23 20:05:54;;;;;;;14.03;12.93;;;8.80;99.90;;;;;;10241502;28;20232;-83
2022/11/23 20:10:58;;;;;;;13.37;12.37;;;8.90;99.90;;;;;;10259984;29;20225;-82
2022/11/23 20:16:02;;;;;;;13.90;13.00;;;8.90;99.90;;;;;;10237189;29;20315;-80
2022/11/23 20:21:04;;;;;;;14.03;13.13;;;9.00;99.90;;;;;;10255445;29;20196;-83
2022/11/23 20:26:08;;;;;;;11.60;10.90;;;9.00;99.90;;;;;;10256174;28;20268;-82
2022/11/23 20:31:15;;;;;;;13.23;12.30;;;9.10;99.90;;;;;;10237486;29;20583;-82
2022/11/23 20:36:19;;;;;;;12.80;11.90;;;9.10;99.90;;;;;;10257593;28;20245;-81
2022/11/23 20:41:25;;;;;;;12.90;12.00;;;9.20;99.90;;;;;;10244288;28;20204;-80
2022/11/23 20:46:29;;;;;;;10.93;10.23;;;9.20;99.90;;;;;;10238239;29;20255;-81
2022/11/23 20:51:31;;;;;;;10.90;9.90;;;9.30;99.90;;;;;;10223511;29;20204;-82
2022/11/23 20:56:37;;;;;;;9.60;9.00;;;9.30;99.90;;;;;;10265116;28;20244;-82
2022/11/23 21:01:40;;;;;;;10.70;9.83;;;9.30;99.90;;;;;;10228978;29;20692;-82
2022/11/23 21:06:42;;;;;;;13.57;10.73;;;9.40;99.90;;;;;;10240351;29;20600;-81
2022/11/23 21:17:05;;;;;;;11.20;10.10;;;9.40;99.90;;;;;;10238617;29;20267;-82
2022/11/23 21:22:09;;;;;;;15.67;11.57;;;9.40;99.90;;;;;;10259273;28;20735;-81
2022/11/23 21:27:13;;;;;;;13.90;12.40;;;9.30;99.90;;;;;;10260163;28;20566;-81
2022/11/23 21:32:15;;;;;;;11.90;9.70;;;9.40;99.90;;;;;;10247193;28;20564;-81
2022/11/23 21:37:17;;;;;;;15.17;10.53;;;9.30;99.90;;;;;;10218380;28;20287;-81
2022/11/23 21:42:21;;;;;;;11.17;9.67;;;9.30;99.90;;;;;;10231107;29;20609;-81
2022/11/23 21:47:23;;;;;;;11.30;9.50;;;9.30;99.90;;;;;;10257035;28;20216;-82
2022/11/23 21:52:25;;;;;;;11.67;9.03;;;9.40;99.90;;;;;;10229917;28;20232;-81
2022/11/23 21:57:29;;;;;;;11.37;10.23;;;9.40;99.90;;;;;;10235573;28;20236;-80
2022/11/23 22:02:31;;;;;;;13.33;8.07;;;9.40;99.90;;;;;;10252602;29;20233;-80
2022/11/23 22:07:34;;;;;;;14.87;11.30;;;9.50;99.90;;;;;;10233596;29;20582;-81
2022/11/23 22:12:37;;;;;;;13.07;10.13;;;9.50;99.90;;;;;;10255562;28;20209;-81
2022/11/23 22:17:39;;;;;;;10.50;9.50;;;9.50;99.90;;;;;;10250587;28;20224;-81
2022/11/23 22:22:42;;;;;;;14.03;10.53;;;9.50;99.90;;;;;;10253264;28;20208;-82
2022/11/23 22:27:45;;;;;;;9.73;8.43;;;9.40;99.90;;;;;;10248304;28;20256;-81
2022/11/23 22:32:47;;;;;;;15.40;10.33;;;9.30;99.90;;;;;;10244518;28;20200;-81
2022/11/23 22:37:49;;;;;;;10.70;7.40;;;9.20;99.90;;;;;;10228714;29;20303;-81
2022/11/23 22:42:53;;;;;;;9.30;7.43;;;9.10;99.90;;;;;;10240688;28;20205;-81
2022/11/23 22:47:55;;;;;;;12.07;8.53;;;9.00;99.90;;;;;;10252365;28;20654;-80
2022/11/23 22:52:57;;;;;;;9.17;7.80;;;8.90;99.90;;;;;;10248983;28;20585;-80
2022/11/23 22:58:01;;;;;;;14.03;8.17;;;8.70;99.90;;;;;;10246563;28;20231;-81
2022/11/23 23:03:03;;;;;;;11.50;7.43;;;8.60;99.90;;;;;;10228114;28;20279;-81
2022/11/23 23:08:05;;;;;;;9.77;8.73;;;8.50;99.90;;;;;;10253363;28;20232;-81
2022/11/23 23:13:09;;;;;;;13.40;8.23;;;8.50;99.90;;;;;;10253625;28;20307;-82
2022/11/23 23:18:13;;;;;;;12.63;8.87;;;8.50;99.90;;;;;;10248513;29;20220;-80
2022/11/23 23:23:15;;;;;;;17.07;9.57;;;8.50;99.90;;;;;;10238747;28;20744;-81
2022/11/23 23:28:18;;;;;;;13.87;9.70;;;8.50;99.90;;;;;;10254201;29;20196;-81
2022/11/23 23:33:20;;;;;;;12.07;7.90;;;8.60;99.90;;;;;;10230289;28;20307;-81
2022/11/23 23:38:26;;;;;;;14.03;8.57;;;8.60;99.90;;;;;;10244708;29;20291;-82
2022/11/23 23:43:30;;;;;;;11.90;7.77;;;8.70;99.90;;;;;;10246837;28;20220;-83
2022/11/23 23:48:33;;;;;;;10.33;8.57;;;8.80;99.90;;;;;;10250991;29;20203;-82
2022/11/23 23:53:36;;;;;;;13.33;7.80;;;8.80;99.90;;;;;;10257673;28;20216;-82
2022/11/23 23:58:40;;;;;;;10.50;7.50;;;8.80;99.90;;;;;;10224226;29;20283;-82
